Etusivu
METAR-TAF:

METAR-TAF

Lentoasemat :

Hohn, Saksa

Leveyspiiri: 54-19N, Pituuspiiri: 009-32E, korkeus merenpinnasta: 12 m

Tämänhetkinen sää

Tämä raportti tehtiin 56 minuuttia sitten, kello 23.20 UTC
Tuuli 9 kn lounaasta
Lämpötila 4°C
Kosteus 100%
Ilmanpaine 1018 hPa
Näkyvyys: 2000 m
Pilvistä 100 ft:n korkeudessa
heikkoa tihkusadetta, utua

METAR: ETNH 242320Z 23009KT 2000 -DZ BR OVC001 04/04 Q1018 RED

Aika: 01:16 (00:16 UTC)

Sääennuste

Tämä raportti tehtiin 1 tunti ja 16 minuuttia sitten, kello 23.00 UTC
Ennuste voimassa 25. päivästä klo 00 UTC - 25. päivään klo 12 UTC
Tuuli 8 kn lounaasta
Näkyvyys: 3000 m
Hajonneita pilviä 400 ft:n korkeudessa
utua
Ajoittain
25. päivästä klo 00 UTC - 25. päivään klo 12 UTC
Tuuli 10 kn lounaasta
Näkyvyys: 1000 m
Hajonneita pilviä 100 ft:n korkeudessa
heikkoa tihkusadetta

TAF: ETNH 242300Z 2500/2512 23008KT 3000 BR BKN004 TEMPO 2500/2512 22010KT 1000 -DZ BKN001 BY ETGL

Säähavainnot ja -ennusteet yli 4000 lentoasemalta (METAR- ja TAF-raportit).

Käytössä olevat sääasemat on merkitty karttaan keltaisilla ja punaisilla pisteillä.

Aseta hiiri pisteen päälle nähdäksesi sääaseman nimen.

Klikkaa sitten nähdäksesi säähavainnot ja -ennusteet.

Kartan vaihtaminen: klikkaa mustalla rastilla varustettuja vihreitä pisteitä, niin voit zoomata sisään; viivalla varustettua vihreää pistettä, niin voit zoomata ulos tai vihreitä nuolia, niin pääset viereisille kartoille.


METAR-TAF: